createdAt,value
2023-02-17T00:02:39.380Z,100884.88
2023-02-17T00:07:40.986Z,100873.78
2023-02-17T00:12:42.316Z,100873.88
2023-02-17T00:17:43.661Z,100855.97
2023-02-17T00:22:45.062Z,100866.66
2023-02-17T00:27:47.514Z,100865.00
2023-02-17T00:32:48.918Z,100847.16
2023-02-17T00:37:50.601Z,100852.66
2023-02-17T00:42:54.738Z,100845.66
2023-02-17T00:47:56.173Z,100860.34
2023-02-17T00:52:58.003Z,100867.63
2023-02-17T00:57:59.467Z,100866.50
2023-02-17T01:03:00.759Z,100858.81
2023-02-17T01:08:02.157Z,100875.88
2023-02-17T01:13:03.607Z,100877.28
2023-02-17T01:18:05.170Z,100894.44
2023-02-17T01:23:08.859Z,100874.84
2023-02-17T01:28:15.491Z,100865.59
2023-02-17T01:33:17.020Z,100860.00
2023-02-17T01:38:18.468Z,100857.25
2023-02-17T01:43:19.899Z,100840.19
2023-02-17T01:48:48.870Z,100833.81
2023-02-17T01:54:04.583Z,100824.06
2023-02-17T01:59:12.068Z,100814.00
2023-02-17T02:04:17.756Z,100799.03
2023-02-17T02:09:23.381Z,100782.66
2023-02-17T02:14:25.403Z,100797.34
2023-02-17T02:20:03.141Z,100770.41
2023-02-17T02:25:35.995Z,100766.53
2023-02-17T02:31:03.208Z,100764.56
2023-02-17T02:36:31.052Z,100744.75
2023-02-17T02:41:41.105Z,100743.91
2023-02-17T02:46:42.500Z,100737.63
2023-02-17T02:51:54.032Z,100736.31
2023-02-17T02:57:10.661Z,100742.94
2023-02-17T03:02:16.789Z,100727.56
2023-02-17T03:07:24.614Z,100704.28
2023-02-17T03:12:27.598Z,100727.94
2023-02-17T03:17:33.197Z,100715.19
2023-02-17T03:22:41.725Z,100716.50
2023-02-17T03:27:43.094Z,100711.56
2023-02-17T03:32:44.599Z,100724.84
2023-02-17T03:37:45.971Z,100720.63
2023-02-17T03:42:48.189Z,100721.06
2023-02-17T03:47:49.577Z,100707.03
2023-02-17T03:52:51.045Z,100724.59
2023-02-17T03:57:52.366Z,100697.28
2023-02-17T04:02:53.905Z,100711.66
2023-02-17T04:07:55.259Z,100714.09
2023-02-17T04:12:56.593Z,100722.06
2023-02-17T04:17:57.939Z,100715.59
2023-02-17T04:22:59.271Z,100707.38
2023-02-17T04:28:01.434Z,100712.59
2023-02-17T04:33:04.583Z,100722.38
2023-02-17T04:38:06.444Z,100712.81
2023-02-17T04:43:08.438Z,100706.75
2023-02-17T04:48:09.854Z,100736.97
2023-02-17T04:53:11.803Z,100725.34
2023-02-17T04:58:13.118Z,100724.50
2023-02-17T05:03:14.477Z,100715.97
2023-02-17T05:08:15.922Z,100705.34
2023-02-17T05:13:17.301Z,100717.69
2023-02-17T05:18:18.698Z,100715.59
2023-02-17T05:23:22.507Z,100706.84
2023-02-17T05:28:23.852Z,100693.25
2023-02-17T05:33:25.157Z,100700.50
2023-02-17T05:38:26.474Z,100717.94
2023-02-17T05:43:27.892Z,100721.22
2023-02-17T05:48:29.433Z,100737.91
2023-02-17T05:53:31.325Z,100744.19
2023-02-17T05:58:32.701Z,100751.75
2023-02-17T06:03:34.245Z,100701.66
2023-02-17T06:08:36.166Z,100737.81
2023-02-17T06:13:37.499Z,100718.78
2023-02-17T06:18:38.888Z,100719.19
2023-02-17T06:23:40.324Z,100722.28
2023-02-17T06:28:41.717Z,100715.81
2023-02-17T06:33:43.080Z,100717.28
2023-02-17T06:38:44.769Z,100708.78
2023-02-17T06:43:46.507Z,100710.28
2023-02-17T06:48:47.869Z,100723.03
2023-02-17T06:53:49.294Z,100734.72
2023-02-17T06:58:51.230Z,100753.00
2023-02-17T07:03:53.844Z,100730.69
2023-02-17T07:08:55.282Z,100743.31
2023-02-17T07:13:57.736Z,100738.13
2023-02-17T07:18:59.128Z,100742.38
2023-02-17T07:24:00.478Z,100750.44
2023-02-17T07:29:01.950Z,100741.00
2023-02-17T07:34:04.619Z,100728.31
2023-02-17T07:39:06.943Z,100737.47
2023-02-17T07:44:08.565Z,100741.63
2023-02-17T07:49:09.878Z,100732.34
2023-02-17T07:54:13.115Z,100728.94
2023-02-17T07:59:15.127Z,100728.31
2023-02-17T08:04:16.575Z,100735.31
2023-02-17T08:09:36.481Z,100734.47
2023-02-17T08:14:38.741Z,100720.72
2023-02-17T08:19:47.935Z,100716.13
2023-02-17T08:24:50.716Z,100730.84
2023-02-17T08:29:52.590Z,100727.00
2023-02-17T08:34:57.314Z,100715.19
2023-02-17T08:40:01.923Z,100736.50
2023-02-17T08:45:03.878Z,100725.41
2023-02-17T08:50:07.730Z,100744.16
2023-02-17T08:55:09.107Z,100745.84
2023-02-17T09:00:11.559Z,100739.09
2023-02-17T09:05:15.187Z,100735.97
2023-02-17T09:10:16.554Z,100750.94
2023-02-17T09:15:18.306Z,100732.13
2023-02-17T09:20:25.038Z,100745.69
2023-02-17T09:25:26.844Z,100733.53
2023-02-17T09:30:28.250Z,100747.41
2023-02-17T09:35:30.542Z,100749.13
2023-02-17T09:40:49.003Z,100729.44
2023-02-17T09:45:56.309Z,100719.59
2023-02-17T09:51:06.599Z,100732.47
2023-02-17T09:56:16.488Z,100743.31
2023-02-17T10:01:22.290Z,100752.63
2023-02-17T10:06:29.172Z,100747.53
2023-02-17T10:11:32.693Z,100757.00
2023-02-17T10:16:44.040Z,100750.28
2023-02-17T10:21:58.944Z,100752.13
2023-02-17T10:27:18.179Z,100746.75
2023-02-17T10:32:27.740Z,100754.84
2023-02-17T10:38:02.080Z,100760.75
2023-02-17T10:43:07.803Z,100744.78
2023-02-17T10:48:14.059Z,100745.78
2023-02-17T10:53:20.101Z,100751.69
2023-02-17T10:58:40.199Z,100721.94
2023-02-17T11:03:41.632Z,100749.88
2023-02-17T11:08:51.768Z,100751.56
2023-02-17T11:14:04.494Z,100755.94
2023-02-17T11:19:08.063Z,100746.50
2023-02-17T11:24:13.043Z,100729.94
2023-02-17T11:29:21.577Z,100754.84
2023-02-17T11:34:28.382Z,100747.34
2023-02-17T11:39:30.265Z,100727.19
2023-02-17T11:44:31.648Z,100735.94
2023-02-17T11:49:51.496Z,100739.81
2023-02-17T11:55:23.762Z,100722.47
2023-02-17T12:00:34.405Z,100727.81
2023-02-17T12:05:55.478Z,100701.13
2023-02-17T12:11:17.053Z,100707.31
2023-02-17T12:16:31.525Z,100695.03
2023-02-17T12:21:56.372Z,100685.53
2023-02-17T12:27:08.474Z,100691.59
2023-02-17T12:32:32.655Z,100651.75
2023-02-17T12:37:43.605Z,100677.72
2023-02-17T12:42:58.262Z,100656.34
2023-02-17T12:48:04.969Z,100613.28
2023-02-17T12:53:14.038Z,100660.09
2023-02-17T12:58:19.748Z,100641.31
2023-02-17T13:03:21.464Z,100647.66
2023-02-17T13:08:30.087Z,100631.97
2023-02-17T13:13:33.733Z,100647.84
2023-02-17T13:18:37.683Z,100654.00
2023-02-17T13:23:41.035Z,100648.66
2023-02-17T13:28:42.788Z,100632.66
2023-02-17T13:33:58.840Z,100661.75
2023-02-17T13:39:03.567Z,100650.00
2023-02-17T13:44:24.408Z,100627.03
2023-02-17T13:49:27.674Z,100615.72
2023-02-17T13:54:29.313Z,100613.72
2023-02-17T13:59:30.701Z,100634.16
2023-02-17T14:04:32.143Z,100629.97
2023-02-17T14:09:35.129Z,100633.72
2023-02-17T14:14:39.023Z,100607.69
2023-02-17T14:19:48.910Z,100616.59
2023-02-17T14:25:12.689Z,100597.38
2023-02-17T14:30:36.096Z,100603.16
2023-02-17T14:35:39.187Z,100593.72
2023-02-17T14:40:41.107Z,100614.22
2023-02-17T14:45:42.475Z,100609.31
2023-02-17T14:50:44.815Z,100611.59
2023-02-17T14:55:53.387Z,100604.16
2023-02-17T15:00:55.184Z,100611.31
2023-02-17T15:05:56.725Z,100603.16
2023-02-17T15:10:58.278Z,100612.44
2023-02-17T15:15:59.838Z,100622.63
2023-02-17T15:21:01.210Z,100616.66
2023-02-17T15:26:02.650Z,100629.66
2023-02-17T15:31:04.405Z,100614.22
2023-02-17T15:36:06.470Z,100602.53
2023-02-17T15:41:25.766Z,100617.16
2023-02-17T15:46:30.913Z,100603.63
2023-02-17T15:51:32.326Z,100600.38
2023-02-17T15:56:47.010Z,100589.69
2023-02-17T16:01:48.837Z,100605.00
2023-02-17T16:06:50.159Z,100628.09
2023-02-17T16:11:54.201Z,100630.88
2023-02-17T16:16:55.730Z,100605.81
2023-02-17T16:21:57.159Z,100619.88
2023-02-17T16:26:58.531Z,100603.53
2023-02-17T16:32:00.189Z,100630.97
2023-02-17T16:37:03.700Z,100631.09
2023-02-17T16:42:05.415Z,100644.34
2023-02-17T16:47:17.017Z,100635.00
2023-02-17T16:52:26.877Z,100625.63
2023-02-17T16:57:28.584Z,100642.84
2023-02-17T17:02:30.318Z,100639.63
2023-02-17T17:07:32.172Z,100649.19
2023-02-17T17:12:33.761Z,100644.50
2023-02-17T17:17:41.202Z,100652.75
2023-02-17T17:22:43.385Z,100665.22
2023-02-17T17:27:45.931Z,100665.69
2023-02-17T17:32:47.512Z,100665.84
2023-02-17T17:37:49.744Z,100672.53
2023-02-17T17:42:51.604Z,100679.56
2023-02-17T17:47:53.134Z,100682.38
2023-02-17T17:52:54.536Z,100685.88
2023-02-17T17:57:55.977Z,100703.41
2023-02-17T18:02:57.456Z,100697.72
2023-02-17T18:07:59.034Z,100737.47
2023-02-17T18:13:00.455Z,100751.47
2023-02-17T18:18:02.377Z,100751.22
2023-02-17T18:23:03.805Z,100761.66
2023-02-17T18:28:05.157Z,100772.25
2023-02-17T18:33:06.576Z,100779.56
2023-02-17T18:38:07.905Z,100776.41
2023-02-17T18:43:09.355Z,100802.78
2023-02-17T18:48:10.689Z,100806.16
2023-02-17T18:53:12.324Z,100795.25
2023-02-17T18:58:13.830Z,100806.41
2023-02-17T19:03:15.114Z,100808.47
2023-02-17T19:08:16.941Z,100828.59
2023-02-17T19:13:18.720Z,100804.22
2023-02-17T19:18:20.247Z,100835.41
2023-02-17T19:23:21.638Z,100844.13
2023-02-17T19:28:23.532Z,100831.16
2023-02-17T19:33:27.665Z,100839.03
2023-02-17T19:38:30.269Z,100851.69
2023-02-17T19:43:31.656Z,100846.22
2023-02-17T19:48:33.429Z,100850.44
2023-02-17T19:53:35.581Z,100864.91
2023-02-17T19:58:37.318Z,100849.63
2023-02-17T20:03:39.358Z,100870.75
2023-02-17T20:08:40.741Z,100865.16
2023-02-17T20:13:46.038Z,100871.22
2023-02-17T20:18:51.205Z,100871.00
2023-02-17T20:23:52.766Z,100872.69
2023-02-17T20:28:54.970Z,100874.38
2023-02-17T20:33:56.909Z,100876.81
2023-02-17T20:38:59.023Z,100884.06
2023-02-17T20:44:02.757Z,100880.81
2023-02-17T20:49:04.243Z,100883.84
2023-02-17T20:54:05.995Z,100887.75
2023-02-17T20:59:09.011Z,100884.31
2023-02-17T21:04:10.780Z,100885.78
2023-02-17T21:09:15.338Z,100891.84
2023-02-17T21:14:16.718Z,100894.06
2023-02-17T21:19:19.436Z,100897.69
2023-02-17T21:24:21.011Z,100898.41
2023-02-17T21:29:22.841Z,100901.31
2023-02-17T21:34:24.216Z,100906.19
2023-02-17T21:39:25.612Z,100888.72
2023-02-17T21:44:45.542Z,100898.66
2023-02-17T21:49:47.731Z,100881.78
2023-02-17T21:54:49.110Z,100891.38
2023-02-17T21:59:50.564Z,100889.19
2023-02-17T22:04:56.398Z,100893.94
2023-02-17T22:10:01.117Z,100880.56
2023-02-17T22:15:04.680Z,100891.97
2023-02-17T22:20:06.775Z,100888.22
2023-02-17T22:25:08.144Z,100898.50
2023-02-17T22:30:10.263Z,100901.53
2023-02-17T22:35:11.658Z,100890.09
2023-02-17T22:40:13.119Z,100902.00
2023-02-17T22:45:14.620Z,100900.06
2023-02-17T22:50:16.510Z,100891.94
2023-02-17T22:55:17.952Z,100898.88
2023-02-17T23:00:19.316Z,100878.47
2023-02-17T23:05:20.688Z,100887.94
2023-02-17T23:10:21.991Z,100881.66
2023-02-17T23:15:39.076Z,100891.59
2023-02-17T23:20:43.967Z,100900.59
2023-02-17T23:25:49.744Z,100909.34
2023-02-17T23:30:52.316Z,100912.00
2023-02-17T23:35:53.721Z,100904.00
2023-02-17T23:40:56.099Z,100907.63
2023-02-17T23:45:58.350Z,100898.91
2023-02-17T23:51:02.606Z,100894.63
2023-02-17T23:56:07.359Z,100885.56
